Cotonou, Benin
Current Conditions -  °F | °C
As of 6:00 PM on Thursday 30 Oct 2014 (Local Time) from DBBB Reporting Station
Broken Clouds Broken Clouds  
Wind Chill: 82°   Ceiling: 10000
Heat Index: 92°   Visibility: 6mi
Dew Point: 79°   Wind: 12mph
Humidity: 89%   Direction: 210°SSW
Pressure: 29.8"   Gusts: NA
Location:  6.36°N, 2.44°E
Report Text: DBBB 301700Z 21010KT 9999 SCT012 FEW026CB BKN100 28/26 Q1009 NOSIG
Loading
Personal Weather Stations






























Interactive Weather Map
Tropical Storm Tracking
New forecast layout! Learn more

10-Day Weather Forecast

Advertisements
Track Severe Weather on mobile